createdAt,value
2022-12-25T00:00:54.055Z,9.29
2022-12-25T00:02:56.131Z,9.30
2022-12-25T00:04:57.991Z,9.26
2022-12-25T00:06:59.855Z,9.21
2022-12-25T00:09:01.589Z,9.14
2022-12-25T00:11:06.636Z,9.11
2022-12-25T00:13:08.338Z,9.07
2022-12-25T00:15:10.335Z,8.96
2022-12-25T00:17:12.115Z,8.87
2022-12-25T00:19:13.916Z,8.89
2022-12-25T00:21:16.024Z,8.83
2022-12-25T00:23:17.712Z,8.81
2022-12-25T00:25:19.374Z,8.73
2022-12-25T00:27:21.048Z,8.72
2022-12-25T00:29:22.905Z,8.76
2022-12-25T00:31:25.390Z,8.74
2022-12-25T00:33:27.264Z,8.76
2022-12-25T00:35:28.937Z,8.80
2022-12-25T00:37:30.649Z,8.78
2022-12-25T00:39:32.706Z,8.76
2022-12-25T00:41:53.041Z,8.73
2022-12-25T00:43:54.740Z,8.74
2022-12-25T00:46:01.843Z,8.80
2022-12-25T00:48:03.851Z,8.74
2022-12-25T00:50:06.723Z,8.80
2022-12-25T00:52:08.942Z,8.83
2022-12-25T00:54:11.142Z,8.86
2022-12-25T00:56:12.831Z,8.92
2022-12-25T00:58:14.509Z,8.88
2022-12-25T01:00:16.609Z,8.91
2022-12-25T01:02:24.069Z,8.93
2022-12-25T01:04:25.809Z,8.89
2022-12-25T01:06:27.862Z,8.92
2022-12-25T01:08:31.135Z,8.96
2022-12-25T01:10:32.925Z,8.91
2022-12-25T01:12:36.562Z,8.88
2022-12-25T01:14:38.418Z,8.77
2022-12-25T01:16:40.255Z,8.78
2022-12-25T01:18:43.432Z,8.71
2022-12-25T01:20:45.391Z,8.74
2022-12-25T01:22:47.537Z,8.69
2022-12-25T01:24:49.262Z,8.72
2022-12-25T01:26:50.925Z,8.73
2022-12-25T01:28:53.917Z,8.68
2022-12-25T01:30:55.641Z,8.72
2022-12-25T01:32:57.697Z,8.73
2022-12-25T01:34:59.434Z,8.68
2022-12-25T01:37:01.850Z,8.60
2022-12-25T01:39:04.573Z,8.66
2022-12-25T01:41:06.445Z,8.67
2022-12-25T01:43:34.316Z,8.65
2022-12-25T01:45:42.748Z,8.57
2022-12-25T01:47:44.548Z,8.50
2022-12-25T01:49:48.936Z,8.43
2022-12-25T01:52:00.484Z,8.47
2022-12-25T01:54:05.660Z,8.43
2022-12-25T01:56:08.634Z,8.44
2022-12-25T01:58:10.440Z,8.48
2022-12-25T02:00:12.829Z,8.47
2022-12-25T02:02:14.865Z,8.44
2022-12-25T02:04:38.951Z,8.43
2022-12-25T02:06:41.769Z,8.43
2022-12-25T02:08:43.823Z,8.33
2022-12-25T02:10:45.848Z,8.37
2022-12-25T02:12:48.521Z,8.37
2022-12-25T02:14:51.738Z,8.45
2022-12-25T02:17:02.458Z,8.46
2022-12-25T02:19:11.686Z,8.39
2022-12-25T02:21:41.223Z,8.34
2022-12-25T02:23:58.131Z,8.28
2022-12-25T02:26:23.126Z,8.25
2022-12-25T02:28:41.075Z,8.20
2022-12-25T02:30:56.842Z,8.10
2022-12-25T02:33:39.389Z,8.10
2022-12-25T02:35:41.961Z,8.03
2022-12-25T02:37:57.581Z,8.13
2022-12-25T02:40:02.294Z,8.19
2022-12-25T02:42:08.490Z,8.18
2022-12-25T02:44:33.783Z,8.19
2022-12-25T02:46:54.072Z,8.20
2022-12-25T02:49:18.019Z,8.20
2022-12-25T02:51:40.535Z,8.25
2022-12-25T02:54:00.712Z,8.25
2022-12-25T02:56:20.908Z,8.18
2022-12-25T02:58:43.112Z,8.20
2022-12-25T03:01:07.981Z,8.26
2022-12-25T03:03:29.971Z,8.26
2022-12-25T03:05:51.303Z,8.26
2022-12-25T03:07:53.428Z,8.26
2022-12-25T03:10:23.218Z,8.25
2022-12-25T03:12:51.080Z,8.20
2022-12-25T03:15:11.288Z,8.14
2022-12-25T03:17:13.085Z,8.17
2022-12-25T03:19:33.691Z,8.17
2022-12-25T03:21:54.234Z,8.16
2022-12-25T03:24:18.568Z,8.11
2022-12-25T03:26:39.143Z,8.21
2022-12-25T03:28:40.868Z,8.15
2022-12-25T03:31:11.566Z,8.15
2022-12-25T03:33:45.285Z,8.23
2022-12-25T03:36:04.228Z,8.25
2022-12-25T03:38:50.480Z,8.16
2022-12-25T03:41:46.271Z,8.12
2022-12-25T03:44:13.319Z,8.10
2022-12-25T03:46:35.453Z,8.06
2022-12-25T03:48:59.935Z,8.07
2022-12-25T03:51:24.668Z,8.11
2022-12-25T03:53:48.754Z,8.01
2022-12-25T03:56:09.827Z,8.00
2022-12-25T03:58:38.179Z,8.06
2022-12-25T04:00:58.293Z,8.01
2022-12-25T04:03:18.421Z,8.02
2022-12-25T04:05:39.051Z,7.96
2022-12-25T04:07:59.444Z,7.99
2022-12-25T04:10:19.843Z,8.01
2022-12-25T04:12:39.850Z,8.00
2022-12-25T04:15:00.385Z,7.89
2022-12-25T04:17:20.859Z,7.95
2022-12-25T04:19:41.295Z,7.84
2022-12-25T04:22:01.548Z,7.79
2022-12-25T04:24:21.967Z,7.89
2022-12-25T04:26:42.462Z,7.86
2022-12-25T04:29:02.809Z,7.87
2022-12-25T04:31:23.412Z,7.94
2022-12-25T04:33:43.935Z,7.87
2022-12-25T04:36:08.300Z,7.76
2022-12-25T04:38:09.988Z,7.71
2022-12-25T04:40:11.869Z,7.76
2022-12-25T04:42:13.717Z,7.81
2022-12-25T04:44:15.579Z,7.83
2022-12-25T04:46:17.405Z,7.83
2022-12-25T04:48:19.021Z,7.76
2022-12-25T04:50:20.719Z,7.77
2022-12-25T04:52:22.435Z,7.69
2022-12-25T04:54:24.156Z,7.70
2022-12-25T04:56:25.903Z,7.66
2022-12-25T04:58:27.625Z,7.66
2022-12-25T05:00:29.254Z,7.69
2022-12-25T05:02:31.770Z,7.69
2022-12-25T05:04:33.776Z,7.57
2022-12-25T05:06:35.494Z,7.61
2022-12-25T05:08:37.437Z,7.32
2022-12-25T05:10:40.497Z,7.22
2022-12-25T05:12:42.316Z,7.32
2022-12-25T05:14:44.103Z,7.40
2022-12-25T05:16:45.880Z,7.51
2022-12-25T05:18:51.231Z,7.52
2022-12-25T05:20:55.720Z,7.53
2022-12-25T05:22:57.468Z,7.53
2022-12-25T05:25:00.447Z,7.50
2022-12-25T05:27:02.058Z,7.51
2022-12-25T05:29:03.898Z,7.47
2022-12-25T05:31:05.703Z,7.51
2022-12-25T05:33:07.582Z,7.53
2022-12-25T05:35:09.749Z,7.61
2022-12-25T05:37:11.463Z,7.64
2022-12-25T05:39:13.169Z,7.62
2022-12-25T05:41:15.037Z,7.71
2022-12-25T05:43:16.770Z,7.72
2022-12-25T05:45:18.538Z,7.68
2022-12-25T05:47:20.570Z,7.78
2022-12-25T05:49:22.235Z,7.80
2022-12-25T05:51:23.998Z,7.84
2022-12-25T05:53:25.733Z,7.84
2022-12-25T05:55:27.461Z,7.87
2022-12-25T05:57:29.849Z,7.84
2022-12-25T05:59:33.123Z,7.90
2022-12-25T06:01:35.033Z,7.94
2022-12-25T06:03:36.829Z,7.97
2022-12-25T06:05:39.899Z,7.98
2022-12-25T06:07:41.602Z,7.96
2022-12-25T06:09:43.419Z,7.99
2022-12-25T06:11:45.463Z,8.01
2022-12-25T06:13:50.978Z,8.11
2022-12-25T06:15:52.663Z,8.08
2022-12-25T06:17:54.656Z,7.99
2022-12-25T06:19:56.336Z,8.01
2022-12-25T06:21:58.135Z,8.08
2022-12-25T06:24:00.782Z,8.11
2022-12-25T06:26:07.126Z,8.11
2022-12-25T06:28:09.000Z,8.16
2022-12-25T06:30:10.997Z,8.21
2022-12-25T06:32:12.620Z,8.35
2022-12-25T06:34:16.716Z,8.76
2022-12-25T06:36:21.052Z,9.29
2022-12-25T06:38:22.697Z,9.59
2022-12-25T06:40:24.435Z,10.09
2022-12-25T06:42:26.398Z,10.42
2022-12-25T06:44:28.137Z,10.14
2022-12-25T06:46:30.472Z,9.93
2022-12-25T06:48:36.079Z,9.69
2022-12-25T06:50:43.669Z,9.64
2022-12-25T06:52:46.080Z,9.64
2022-12-25T06:54:47.763Z,9.41
2022-12-25T06:56:50.016Z,9.29
2022-12-25T06:58:57.387Z,9.20
2022-12-25T07:00:59.265Z,9.25
2022-12-25T07:03:01.191Z,9.17
2022-12-25T07:05:04.231Z,9.21
2022-12-25T07:07:09.169Z,9.17
2022-12-25T07:09:11.241Z,9.07
2022-12-25T07:11:13.054Z,9.07
2022-12-25T07:13:14.778Z,9.11
2022-12-25T07:15:16.586Z,9.16
2022-12-25T07:17:19.662Z,9.18
2022-12-25T07:19:21.278Z,9.16
2022-12-25T07:21:22.916Z,9.14
2022-12-25T07:23:24.697Z,9.17
2022-12-25T07:25:27.351Z,9.20
2022-12-25T07:27:31.522Z,9.14
2022-12-25T07:29:33.217Z,9.27
2022-12-25T07:31:35.249Z,9.28
2022-12-25T07:33:36.967Z,9.21
2022-12-25T07:35:38.861Z,9.33
2022-12-25T07:37:40.485Z,9.35
2022-12-25T07:39:42.169Z,9.32
2022-12-25T07:41:44.469Z,9.26
2022-12-25T07:43:50.116Z,9.37
2022-12-25T07:45:59.290Z,9.39
2022-12-25T07:48:05.153Z,9.35
2022-12-25T07:50:09.758Z,9.49
2022-12-25T07:52:11.635Z,9.53
2022-12-25T07:54:13.245Z,9.58
2022-12-25T07:56:20.345Z,9.46
2022-12-25T07:58:23.591Z,9.57
2022-12-25T08:00:29.818Z,9.62
2022-12-25T08:02:31.699Z,9.64
2022-12-25T08:04:33.571Z,9.73
2022-12-25T08:06:35.889Z,9.75
2022-12-25T08:08:38.551Z,9.84
2022-12-25T08:10:46.432Z,9.77
2022-12-25T08:12:48.115Z,9.83
2022-12-25T08:14:49.821Z,9.74
2022-12-25T08:16:51.610Z,9.94
2022-12-25T08:18:53.838Z,9.94
2022-12-25T08:20:55.735Z,9.93
2022-12-25T08:22:57.401Z,9.95
2022-12-25T08:24:59.059Z,10.19
2022-12-25T08:27:00.774Z,10.28
2022-12-25T08:29:02.621Z,10.35
2022-12-25T08:31:09.381Z,10.38
2022-12-25T08:33:11.058Z,10.35
2022-12-25T08:35:13.025Z,10.48
2022-12-25T08:37:14.757Z,10.52
2022-12-25T08:39:16.461Z,10.62
2022-12-25T08:41:18.273Z,10.74
2022-12-25T08:43:20.006Z,10.61
2022-12-25T08:45:21.684Z,10.71
2022-12-25T08:47:23.319Z,10.92
2022-12-25T08:49:27.539Z,10.76
2022-12-25T08:51:29.553Z,10.77
2022-12-25T08:53:31.271Z,10.85
2022-12-25T08:55:33.329Z,10.88
2022-12-25T08:57:35.022Z,10.97
2022-12-25T08:59:36.631Z,11.05
2022-12-25T09:01:38.444Z,11.22
2022-12-25T09:03:40.261Z,11.19
2022-12-25T09:05:41.971Z,11.27
2022-12-25T09:07:43.744Z,11.27
2022-12-25T09:09:45.647Z,11.35
2022-12-25T09:11:49.402Z,11.33
2022-12-25T09:13:51.111Z,11.30
2022-12-25T09:15:53.513Z,11.03
2022-12-25T09:17:55.223Z,11.29
2022-12-25T09:19:56.976Z,11.43
2022-12-25T09:21:58.709Z,11.59
2022-12-25T09:24:00.347Z,11.28
2022-12-25T09:26:03.269Z,11.31
2022-12-25T09:28:05.065Z,11.45
2022-12-25T09:30:07.324Z,11.48
2022-12-25T09:32:09.819Z,11.51
2022-12-25T09:34:17.091Z,11.71
2022-12-25T09:36:23.564Z,11.73
2022-12-25T09:38:25.906Z,11.90
2022-12-25T09:40:30.564Z,12.05
2022-12-25T09:42:34.491Z,12.09
2022-12-25T09:44:43.084Z,11.60
2022-12-25T09:46:51.748Z,11.17
2022-12-25T09:49:32.269Z,11.20
2022-12-25T09:51:35.873Z,11.53
2022-12-25T09:53:40.402Z,11.81
2022-12-25T09:56:02.177Z,11.78
2022-12-25T09:58:12.675Z,11.81
2022-12-25T10:00:16.625Z,11.64
2022-12-25T10:02:43.382Z,11.75
2022-12-25T10:05:17.736Z,11.96
2022-12-25T10:07:46.788Z,11.78
2022-12-25T10:10:30.794Z,11.40
2022-12-25T10:12:43.272Z,10.92
2022-12-25T10:15:10.019Z,10.85
2022-12-25T10:17:53.092Z,11.22
2022-12-25T10:20:18.815Z,11.69
2022-12-25T10:22:27.945Z,11.79
2022-12-25T10:24:53.253Z,11.84
2022-12-25T10:26:56.050Z,11.57
2022-12-25T10:29:09.712Z,11.44
2022-12-25T10:31:23.627Z,11.45
2022-12-25T10:33:25.629Z,11.54
2022-12-25T10:35:29.150Z,11.73
2022-12-25T10:37:30.773Z,11.43
2022-12-25T10:39:32.523Z,11.22
2022-12-25T10:41:59.039Z,11.30
2022-12-25T10:44:01.214Z,11.52
2022-12-25T10:46:09.959Z,11.63
2022-12-25T10:48:26.210Z,11.81
2022-12-25T10:50:28.758Z,11.85
2022-12-25T10:52:30.436Z,12.04
2022-12-25T10:54:35.700Z,11.96
2022-12-25T10:56:37.376Z,12.06
2022-12-25T10:58:38.964Z,12.07
2022-12-25T11:00:40.904Z,12.11
2022-12-25T11:02:42.663Z,12.19
2022-12-25T11:04:44.713Z,12.35
2022-12-25T11:06:56.884Z,12.41
2022-12-25T11:09:01.138Z,12.13
2022-12-25T11:11:06.606Z,12.21
2022-12-25T11:13:19.337Z,12.29
2022-12-25T11:15:40.872Z,12.33
2022-12-25T11:17:48.744Z,12.52
2022-12-25T11:19:59.067Z,12.52
2022-12-25T11:22:02.110Z,12.49
2022-12-25T11:24:22.199Z,12.14
2022-12-25T11:26:24.051Z,11.85
2022-12-25T11:28:27.542Z,11.20
2022-12-25T11:30:30.367Z,11.54
2022-12-25T11:32:37.764Z,11.72
2022-12-25T11:34:47.618Z,11.87
2022-12-25T11:36:50.967Z,11.92
2022-12-25T11:38:52.770Z,12.13
2022-12-25T11:41:01.711Z,12.02
2022-12-25T11:43:10.206Z,11.71
2022-12-25T11:45:13.135Z,11.54
2022-12-25T11:47:23.905Z,11.20
2022-12-25T11:49:25.627Z,11.36
2022-12-25T11:51:32.849Z,11.63
2022-12-25T11:54:20.723Z,12.01
2022-12-25T11:56:25.222Z,12.10
2022-12-25T11:58:35.852Z,12.08
2022-12-25T12:00:38.000Z,12.12
2022-12-25T12:02:45.970Z,11.68
2022-12-25T12:04:50.005Z,11.54
2022-12-25T12:06:55.874Z,11.66
2022-12-25T12:09:05.613Z,11.64
2022-12-25T12:11:41.309Z,11.48
2022-12-25T12:13:52.196Z,11.60
2022-12-25T12:15:53.963Z,11.58
2022-12-25T12:17:55.984Z,11.72
2022-12-25T12:19:59.010Z,11.78
2022-12-25T12:22:02.978Z,11.82
2022-12-25T12:24:14.536Z,11.95
2022-12-25T12:26:21.217Z,11.93
2022-12-25T12:28:26.935Z,12.03
2022-12-25T12:30:32.479Z,11.72
2022-12-25T12:32:34.117Z,11.23
2022-12-25T12:34:42.626Z,11.38
2022-12-25T12:36:44.442Z,11.66
2022-12-25T12:38:46.157Z,11.77
2022-12-25T12:40:59.908Z,11.44
2022-12-25T12:43:02.096Z,11.07
2022-12-25T12:45:27.051Z,11.22
2022-12-25T12:47:28.721Z,11.33
2022-12-25T12:49:32.995Z,11.32
2022-12-25T12:51:36.624Z,11.48
2022-12-25T12:53:40.487Z,11.39
2022-12-25T12:55:42.101Z,11.50
2022-12-25T12:57:43.761Z,11.68
2022-12-25T12:59:46.963Z,11.61
2022-12-25T13:01:56.081Z,11.67
2022-12-25T13:04:36.287Z,11.81
2022-12-25T13:06:48.681Z,11.40
2022-12-25T13:09:18.689Z,11.18
2022-12-25T13:11:23.578Z,11.25
2022-12-25T13:13:28.632Z,11.08
2022-12-25T13:15:35.374Z,11.11
2022-12-25T13:17:37.405Z,11.00
2022-12-25T13:19:42.511Z,11.22
2022-12-25T13:21:56.263Z,11.37
2022-12-25T13:24:03.751Z,11.42
2022-12-25T13:26:17.108Z,11.60
2022-12-25T13:28:24.834Z,11.73
2022-12-25T13:30:26.962Z,11.73
2022-12-25T13:32:30.192Z,11.61
2022-12-25T13:34:40.579Z,11.19
2022-12-25T13:36:42.263Z,11.20
2022-12-25T13:38:49.547Z,11.28
2022-12-25T13:41:10.681Z,11.35
2022-12-25T13:43:12.329Z,11.30
2022-12-25T13:45:13.997Z,11.42
2022-12-25T13:47:23.178Z,11.48
2022-12-25T13:49:24.959Z,11.58
2022-12-25T13:51:27.260Z,11.60
2022-12-25T13:53:29.329Z,11.62
2022-12-25T13:55:31.069Z,11.56
2022-12-25T13:57:38.080Z,11.50
2022-12-25T13:59:39.957Z,11.59
2022-12-25T14:01:45.316Z,11.58
2022-12-25T14:03:47.667Z,11.59
2022-12-25T14:06:00.996Z,11.56
2022-12-25T14:08:05.097Z,11.48
2022-12-25T14:10:07.369Z,11.45
2022-12-25T14:12:12.865Z,11.51
2022-12-25T14:14:23.193Z,11.56
2022-12-25T14:16:26.076Z,11.51
2022-12-25T14:18:29.017Z,11.42
2022-12-25T14:20:41.140Z,11.50
2022-12-25T14:22:42.817Z,11.55
2022-12-25T14:24:44.571Z,11.57
2022-12-25T14:26:46.266Z,11.58
2022-12-25T14:28:49.634Z,11.53
2022-12-25T14:30:51.637Z,11.54
2022-12-25T14:32:54.080Z,11.44
2022-12-25T14:34:59.138Z,11.44
2022-12-25T14:37:01.827Z,11.52
2022-12-25T14:39:07.068Z,11.54
2022-12-25T14:41:24.217Z,11.57
2022-12-25T14:43:28.785Z,11.54
2022-12-25T14:45:38.872Z,11.53
2022-12-25T14:47:51.973Z,11.52
2022-12-25T14:49:54.712Z,11.42
2022-12-25T14:51:56.409Z,11.40
2022-12-25T14:54:03.539Z,11.41
2022-12-25T14:56:07.079Z,11.40
2022-12-25T14:58:22.467Z,11.35
2022-12-25T15:00:31.778Z,11.27
2022-12-25T15:02:44.923Z,11.21
2022-12-25T15:04:47.142Z,11.18
2022-12-25T15:06:55.516Z,11.09
2022-12-25T15:08:59.720Z,11.08
2022-12-25T15:11:03.180Z,11.02
2022-12-25T15:13:05.861Z,11.01
2022-12-25T15:15:07.920Z,10.99
2022-12-25T15:17:20.676Z,10.99
2022-12-25T15:19:31.750Z,10.92
2022-12-25T15:21:37.776Z,10.91
2022-12-25T15:23:39.388Z,10.84
2022-12-25T15:25:41.064Z,10.76
2022-12-25T15:27:42.714Z,10.74
2022-12-25T15:30:09.069Z,10.75
2022-12-25T15:32:13.872Z,10.68
2022-12-25T15:34:21.831Z,10.64
2022-12-25T15:36:24.696Z,10.63
2022-12-25T15:38:26.571Z,10.63
2022-12-25T15:40:28.290Z,10.60
2022-12-25T15:42:30.861Z,10.59
2022-12-25T15:44:32.816Z,10.51
2022-12-25T15:46:35.050Z,10.45
2022-12-25T15:48:36.692Z,10.52
2022-12-25T15:50:39.683Z,10.48
2022-12-25T15:52:41.401Z,10.57
2022-12-25T15:54:43.062Z,10.50
2022-12-25T15:56:46.564Z,10.60
2022-12-25T15:58:48.223Z,10.59
2022-12-25T16:00:50.784Z,10.59
2022-12-25T16:02:53.631Z,10.51
2022-12-25T16:04:55.542Z,10.55
2022-12-25T16:06:57.421Z,10.46
2022-12-25T16:08:59.125Z,10.41
2022-12-25T16:11:00.749Z,10.40
2022-12-25T16:13:02.686Z,10.31
2022-12-25T16:15:04.992Z,10.30
2022-12-25T16:17:06.985Z,10.25
2022-12-25T16:19:08.700Z,10.21
2022-12-25T16:21:15.677Z,10.26
2022-12-25T16:23:17.434Z,10.21
2022-12-25T16:25:19.893Z,10.27
2022-12-25T16:27:22.025Z,10.29
2022-12-25T16:29:23.832Z,10.25
2022-12-25T16:31:25.656Z,10.18
2022-12-25T16:33:28.298Z,10.20
2022-12-25T16:35:30.019Z,10.16
2022-12-25T16:37:31.905Z,10.20
2022-12-25T16:39:33.757Z,10.15
2022-12-25T16:41:35.421Z,10.13
2022-12-25T16:43:37.137Z,10.17
2022-12-25T16:45:40.064Z,10.19
2022-12-25T16:47:42.195Z,10.22
2022-12-25T16:49:44.186Z,10.15
2022-12-25T16:51:45.847Z,10.14
2022-12-25T16:53:48.068Z,10.11
2022-12-25T16:55:49.833Z,10.07
2022-12-25T16:57:51.534Z,10.04
2022-12-25T16:59:53.292Z,10.06
2022-12-25T17:01:55.112Z,10.04
2022-12-25T17:04:01.644Z,10.07
2022-12-25T17:06:04.662Z,10.09
2022-12-25T17:08:06.348Z,10.11
2022-12-25T17:10:09.005Z,10.14
2022-12-25T17:12:10.814Z,10.01
2022-12-25T17:14:12.473Z,9.96
2022-12-25T17:16:23.199Z,9.92
2022-12-25T17:18:24.917Z,9.98
2022-12-25T17:20:26.576Z,9.90
2022-12-25T17:22:28.224Z,9.96
2022-12-25T17:24:30.100Z,9.97
2022-12-25T17:26:32.635Z,9.85
2022-12-25T17:28:34.845Z,9.86
2022-12-25T17:30:36.513Z,9.85
2022-12-25T17:32:38.353Z,9.86
2022-12-25T17:34:40.131Z,9.86
2022-12-25T17:36:41.925Z,9.83
2022-12-25T17:38:44.096Z,9.83
2022-12-25T17:40:46.058Z,9.90
2022-12-25T17:42:47.692Z,9.95
2022-12-25T17:44:49.444Z,9.90
2022-12-25T17:46:51.335Z,9.86
2022-12-25T17:48:55.126Z,9.79
2022-12-25T17:51:03.948Z,9.79
2022-12-25T17:53:06.466Z,9.69
2022-12-25T17:55:08.644Z,9.72
2022-12-25T17:57:10.409Z,9.73
2022-12-25T17:59:18.198Z,9.75
2022-12-25T18:01:21.080Z,9.71
2022-12-25T18:03:23.818Z,9.70
2022-12-25T18:05:25.631Z,9.70
2022-12-25T18:07:27.391Z,9.70
2022-12-25T18:09:29.430Z,9.65
2022-12-25T18:11:33.264Z,9.70
2022-12-25T18:13:34.975Z,9.72
2022-12-25T18:15:39.907Z,9.87
2022-12-25T18:17:42.170Z,10.01
2022-12-25T18:20:03.964Z,10.24
2022-12-25T18:22:05.643Z,10.73
2022-12-25T18:24:08.378Z,11.03
2022-12-25T18:26:14.171Z,11.28
2022-12-25T18:28:16.113Z,11.71
2022-12-25T18:30:17.944Z,11.97
2022-12-25T18:32:24.860Z,12.11
2022-12-25T18:34:29.421Z,12.10
2022-12-25T18:36:31.335Z,11.97
2022-12-25T18:38:33.704Z,11.81
2022-12-25T18:40:45.339Z,11.55
2022-12-25T18:42:52.283Z,11.31
2022-12-25T18:44:55.464Z,11.07
2022-12-25T18:46:57.148Z,11.03
2022-12-25T18:48:58.845Z,10.97
2022-12-25T18:51:05.100Z,10.90
2022-12-25T18:53:07.491Z,10.88
2022-12-25T18:55:09.811Z,10.84
2022-12-25T18:57:11.856Z,10.80
2022-12-25T18:59:13.568Z,10.63
2022-12-25T19:01:20.949Z,10.44
2022-12-25T19:03:22.868Z,10.33
2022-12-25T19:05:25.313Z,10.23
2022-12-25T19:07:26.985Z,10.20
2022-12-25T19:09:28.735Z,10.12
2022-12-25T19:11:30.685Z,10.14
2022-12-25T19:13:32.361Z,10.15
2022-12-25T19:15:35.737Z,10.16
2022-12-25T19:17:37.509Z,10.06
2022-12-25T19:19:39.352Z,10.02
2022-12-25T19:21:41.465Z,9.97
2022-12-25T19:23:43.554Z,9.89
2022-12-25T19:25:45.675Z,9.81
2022-12-25T19:27:47.357Z,9.86
2022-12-25T19:29:49.313Z,9.99
2022-12-25T19:31:51.253Z,9.99
2022-12-25T19:33:53.148Z,9.89
2022-12-25T19:36:02.577Z,9.82
2022-12-25T19:38:04.400Z,9.71
2022-12-25T19:40:07.125Z,9.61
2022-12-25T19:42:08.787Z,9.48
2022-12-25T19:44:10.813Z,9.45
2022-12-25T19:46:29.939Z,9.43
2022-12-25T19:48:32.834Z,9.45
2022-12-25T19:50:34.566Z,9.45
2022-12-25T19:52:36.240Z,9.46
2022-12-25T19:54:38.061Z,9.45
2022-12-25T19:56:40.082Z,9.43
2022-12-25T19:58:41.932Z,9.45
2022-12-25T20:00:43.947Z,9.45
2022-12-25T20:02:45.759Z,9.47
2022-12-25T20:04:47.742Z,9.41
2022-12-25T20:06:49.732Z,9.35
2022-12-25T20:08:53.826Z,9.42
2022-12-25T20:10:55.491Z,9.40
2022-12-25T20:12:57.200Z,9.34
2022-12-25T20:14:58.999Z,9.33
2022-12-25T20:17:00.757Z,9.29
2022-12-25T20:19:02.495Z,9.33
2022-12-25T20:21:07.310Z,9.37
2022-12-25T20:23:09.121Z,9.36
2022-12-25T20:25:11.515Z,9.32
2022-12-25T20:27:13.440Z,9.23
2022-12-25T20:29:16.968Z,9.08
2022-12-25T20:31:30.246Z,9.01
2022-12-25T20:33:31.924Z,8.90
2022-12-25T20:35:33.899Z,8.77
2022-12-25T20:37:35.554Z,8.63
2022-12-25T20:39:38.752Z,8.46
2022-12-25T20:41:40.983Z,8.29
2022-12-25T20:43:45.485Z,8.13
2022-12-25T20:45:50.470Z,8.05
2022-12-25T20:47:52.090Z,7.84
2022-12-25T20:49:54.537Z,7.79
2022-12-25T20:51:59.851Z,7.72
2022-12-25T20:54:09.480Z,7.65
2022-12-25T20:56:13.515Z,7.71
2022-12-25T20:58:16.960Z,7.84
2022-12-25T21:00:18.821Z,7.94
2022-12-25T21:02:34.117Z,7.99
2022-12-25T21:04:38.013Z,8.05
2022-12-25T21:06:39.715Z,8.11
2022-12-25T21:08:41.500Z,8.19
2022-12-25T21:10:44.369Z,8.22
2022-12-25T21:12:46.057Z,8.25
2022-12-25T21:14:47.709Z,8.29
2022-12-25T21:16:50.258Z,8.31
2022-12-25T21:18:53.507Z,8.34
2022-12-25T21:20:57.406Z,8.38
2022-12-25T21:22:58.912Z,8.33
2022-12-25T21:25:00.668Z,8.24
2022-12-25T21:27:02.421Z,8.18
2022-12-25T21:29:04.609Z,8.19
2022-12-25T21:31:07.885Z,8.17
2022-12-25T21:33:31.210Z,8.19
2022-12-25T21:35:36.746Z,8.23
2022-12-25T21:37:38.479Z,8.20
2022-12-25T21:39:40.384Z,8.18
2022-12-25T21:41:42.188Z,8.11
2022-12-25T21:43:43.923Z,7.96
2022-12-25T21:45:45.737Z,7.75
2022-12-25T21:48:01.831Z,7.69
2022-12-25T21:50:23.632Z,7.64
2022-12-25T21:52:25.472Z,7.63
2022-12-25T21:54:27.482Z,7.68
2022-12-25T21:56:36.003Z,7.72
2022-12-25T21:58:40.132Z,7.79
2022-12-25T22:00:41.781Z,7.78
2022-12-25T22:02:43.585Z,7.80
2022-12-25T22:04:45.273Z,7.84
2022-12-25T22:07:05.999Z,7.78
2022-12-25T22:09:08.992Z,7.87
2022-12-25T22:11:30.646Z,7.93
2022-12-25T22:13:50.771Z,7.93
2022-12-25T22:16:11.483Z,7.97
2022-12-25T22:18:33.173Z,8.00
2022-12-25T22:20:38.591Z,7.99
2022-12-25T22:22:40.388Z,7.98
2022-12-25T22:24:42.355Z,7.93
2022-12-25T22:26:44.674Z,7.96
2022-12-25T22:28:46.342Z,7.91
2022-12-25T22:30:47.993Z,7.89
2022-12-25T22:32:49.865Z,7.89
2022-12-25T22:34:52.083Z,7.85
2022-12-25T22:36:54.276Z,7.79
2022-12-25T22:38:56.015Z,7.70
2022-12-25T22:40:57.894Z,7.64
2022-12-25T22:42:59.611Z,7.58
2022-12-25T22:45:01.741Z,7.57
2022-12-25T22:47:03.885Z,7.52
2022-12-25T22:49:05.661Z,7.52
2022-12-25T22:51:07.393Z,7.53
2022-12-25T22:53:09.131Z,7.48
2022-12-25T22:55:11.070Z,7.45
2022-12-25T22:57:12.817Z,7.42
2022-12-25T22:59:16.563Z,7.40
2022-12-25T23:01:18.321Z,7.45
2022-12-25T23:03:20.125Z,7.50
2022-12-25T23:05:21.913Z,7.47
2022-12-25T23:07:23.536Z,7.48
2022-12-25T23:09:28.023Z,7.50
2022-12-25T23:11:29.987Z,7.45
2022-12-25T23:13:50.746Z,7.45
2022-12-25T23:15:52.433Z,7.39
2022-12-25T23:18:12.977Z,7.32
2022-12-25T23:20:34.086Z,7.26
2022-12-25T23:22:54.601Z,7.20
2022-12-25T23:25:15.981Z,7.14
2022-12-25T23:27:17.932Z,7.10
2022-12-25T23:29:45.589Z,7.07
2022-12-25T23:31:53.770Z,7.01
2022-12-25T23:33:55.755Z,6.95
2022-12-25T23:35:57.562Z,6.94
2022-12-25T23:37:59.260Z,6.91
2022-12-25T23:40:01.349Z,7.03
2022-12-25T23:42:03.224Z,7.01
2022-12-25T23:44:05.000Z,7.05
2022-12-25T23:46:06.746Z,7.02
2022-12-25T23:48:08.544Z,6.97
2022-12-25T23:50:10.558Z,6.79
2022-12-25T23:52:13.100Z,6.41
2022-12-25T23:54:17.099Z,6.21
2022-12-25T23:56:18.855Z,6.08
2022-12-25T23:58:20.786Z,5.99
